createdAt,value
2022-08-25T00:02:14.009Z,4.60
2022-08-25T00:04:42.678Z,6.35
2022-08-25T00:07:11.182Z,4.50
2022-08-25T00:09:38.309Z,7.85
2022-08-25T00:12:06.775Z,4.55
2022-08-25T00:14:36.923Z,5.68
2022-08-25T00:17:05.473Z,9.52
2022-08-25T00:19:36.848Z,6.60
2022-08-25T00:22:06.950Z,6.50
2022-08-25T00:24:34.208Z,5.57
2022-08-25T00:27:02.053Z,7.47
2022-08-25T00:29:31.326Z,5.28
2022-08-25T00:31:58.511Z,5.90
2022-08-25T00:34:34.291Z,6.55
2022-08-25T00:37:03.046Z,6.88
2022-08-25T00:39:30.621Z,6.65
2022-08-25T00:41:57.877Z,7.43
2022-08-25T00:44:28.699Z,6.70
2022-08-25T00:46:58.190Z,6.85
2022-08-25T00:49:39.120Z,7.35
2022-08-25T00:52:11.601Z,6.57
2022-08-25T00:54:44.814Z,5.03
2022-08-25T00:57:15.971Z,8.68
2022-08-25T00:59:44.406Z,5.32
2022-08-25T01:02:14.585Z,6.20
2022-08-25T01:04:48.599Z,4.50
2022-08-25T01:07:18.758Z,4.95
2022-08-25T01:09:47.740Z,4.78
2022-08-25T01:12:15.328Z,5.32
2022-08-25T01:14:46.003Z,5.07
2022-08-25T01:17:14.031Z,4.63
2022-08-25T01:19:40.921Z,4.50
2022-08-25T01:22:08.614Z,5.32
2022-08-25T01:24:47.513Z,4.97
2022-08-25T01:27:14.564Z,6.07
2022-08-25T01:29:41.824Z,7.50
2022-08-25T01:32:12.244Z,7.03
2022-08-25T01:34:41.541Z,10.23
2022-08-25T01:37:13.413Z,4.57
2022-08-25T01:39:42.028Z,6.47
2022-08-25T01:42:46.684Z,6.05
2022-08-25T01:45:13.918Z,5.20
2022-08-25T01:47:40.794Z,6.78
2022-08-25T01:50:08.090Z,5.30
2022-08-25T01:52:43.939Z,7.50
2022-08-25T01:55:10.762Z,7.65
2022-08-25T01:57:38.111Z,6.70
2022-08-25T02:00:07.695Z,5.22
2022-08-25T02:02:38.189Z,4.78
2022-08-25T02:05:11.484Z,6.68
2022-08-25T02:07:38.425Z,4.75
2022-08-25T02:10:07.431Z,6.38
2022-08-25T02:12:35.336Z,6.40
2022-08-25T02:15:03.277Z,5.50
2022-08-25T02:17:30.142Z,7.53
2022-08-25T02:19:57.281Z,6.80
2022-08-25T02:22:24.458Z,5.25
2022-08-25T02:24:51.290Z,7.85
2022-08-25T02:27:18.052Z,5.82
2022-08-25T02:29:46.719Z,5.00
2022-08-25T02:32:13.697Z,4.95
2022-08-25T02:34:41.590Z,7.65
2022-08-25T02:37:08.686Z,6.60
2022-08-25T02:39:35.967Z,5.22
2022-08-25T02:42:03.359Z,6.20
2022-08-25T02:44:31.291Z,8.02
2022-08-25T02:46:58.491Z,8.20
2022-08-25T02:49:25.317Z,6.40
2022-08-25T02:51:52.319Z,6.30
2022-08-25T02:54:19.217Z,6.00
2022-08-25T02:56:46.250Z,9.23
2022-08-25T02:59:13.048Z,5.07
2022-08-25T03:01:39.870Z,5.03
2022-08-25T03:04:07.218Z,6.53
2022-08-25T03:06:34.207Z,6.15
2022-08-25T03:09:01.578Z,5.15
2022-08-25T03:11:28.958Z,5.35
2022-08-25T03:13:56.577Z,7.22
2022-08-25T03:16:23.863Z,6.75
2022-08-25T03:18:54.913Z,9.37
2022-08-25T03:21:21.761Z,5.80
2022-08-25T03:23:48.672Z,5.60
2022-08-25T03:26:33.969Z,5.30
2022-08-25T03:29:02.719Z,5.28
2022-08-25T03:31:29.616Z,5.13
2022-08-25T03:33:56.443Z,7.22
2022-08-25T03:36:23.591Z,5.45
2022-08-25T03:38:51.017Z,4.82
2022-08-25T03:41:23.984Z,5.25
2022-08-25T03:43:55.414Z,5.30
2022-08-25T03:46:28.137Z,5.82
2022-08-25T03:48:55.595Z,5.05
2022-08-25T03:51:35.238Z,5.70
2022-08-25T03:54:04.033Z,5.82
2022-08-25T03:56:31.651Z,5.73
2022-08-25T03:58:59.014Z,5.97
2022-08-25T04:01:27.211Z,6.03
2022-08-25T04:03:54.286Z,9.68
2022-08-25T04:06:21.459Z,7.37
2022-08-25T04:08:48.738Z,7.50
2022-08-25T04:11:18.369Z,7.18
2022-08-25T04:13:47.051Z,6.27
2022-08-25T04:16:23.014Z,5.53
2022-08-25T04:18:52.063Z,6.07
2022-08-25T04:21:20.417Z,5.50
2022-08-25T04:23:51.256Z,5.83
2022-08-25T04:26:19.790Z,6.45
2022-08-25T04:28:47.442Z,5.20
2022-08-25T04:31:17.056Z,7.47
2022-08-25T04:33:44.589Z,6.15
2022-08-25T04:36:12.486Z,6.10
2022-08-25T04:38:41.475Z,7.65
2022-08-25T04:41:09.265Z,7.03
2022-08-25T04:43:37.134Z,6.97
2022-08-25T04:46:11.312Z,5.70
2022-08-25T04:48:40.188Z,8.47
2022-08-25T04:51:09.709Z,5.28
2022-08-25T04:53:37.561Z,5.40
2022-08-25T04:56:10.439Z,6.72
2022-08-25T04:58:37.875Z,6.15
2022-08-25T05:01:10.641Z,6.43
2022-08-25T05:03:38.405Z,6.22
2022-08-25T05:06:05.750Z,6.28
2022-08-25T05:08:33.672Z,5.95
2022-08-25T05:11:06.573Z,5.45
2022-08-25T05:13:34.756Z,6.93
2022-08-25T05:16:02.887Z,10.55
2022-08-25T05:18:32.037Z,5.85
2022-08-25T05:21:05.190Z,5.60
2022-08-25T05:23:32.294Z,6.75
2022-08-25T05:26:06.671Z,6.93
2022-08-25T05:28:34.096Z,4.60
2022-08-25T05:31:04.505Z,4.90
2022-08-25T05:33:33.034Z,4.68
2022-08-25T05:36:00.199Z,4.55
2022-08-25T05:38:27.515Z,7.20
2022-08-25T05:41:03.023Z,5.57
2022-08-25T05:43:30.308Z,8.68
2022-08-25T05:45:58.406Z,7.13
2022-08-25T05:48:26.795Z,16.95
2022-08-25T05:50:59.354Z,18.65
2022-08-25T05:53:28.520Z,21.77
2022-08-25T05:55:59.437Z,18.80
2022-08-25T05:58:28.437Z,23.00
2022-08-25T06:00:56.371Z,20.42
2022-08-25T06:03:23.646Z,18.80
2022-08-25T06:05:50.572Z,17.25
2022-08-25T06:08:19.569Z,17.85
2022-08-25T06:10:52.332Z,16.52
2022-08-25T06:13:26.015Z,15.25
2022-08-25T06:16:00.540Z,14.20
2022-08-25T06:18:27.768Z,13.15
2022-08-25T06:20:54.674Z,12.63
2022-08-25T06:23:21.450Z,10.07
2022-08-25T06:25:53.549Z,12.90
2022-08-25T06:28:21.302Z,13.93
2022-08-25T06:30:48.406Z,13.02
2022-08-25T06:33:15.795Z,10.65
2022-08-25T06:35:43.505Z,10.15
2022-08-25T06:38:11.150Z,10.60
2022-08-25T06:40:38.834Z,10.07
2022-08-25T06:43:08.929Z,10.25
2022-08-25T06:45:35.897Z,9.65
2022-08-25T06:48:02.818Z,11.10
2022-08-25T06:50:30.107Z,11.52
2022-08-25T06:52:57.102Z,8.38
2022-08-25T06:55:23.986Z,9.63
2022-08-25T06:57:54.174Z,10.48
2022-08-25T07:00:22.975Z,8.30
2022-08-25T07:02:59.076Z,8.65
2022-08-25T07:05:33.498Z,9.32
2022-08-25T07:08:07.491Z,11.27
2022-08-25T07:10:34.299Z,8.18
2022-08-25T07:13:03.602Z,9.60
2022-08-25T07:15:30.420Z,8.35
2022-08-25T07:17:57.998Z,7.95
2022-08-25T07:22:57.040Z,7.45
2022-08-25T07:25:24.636Z,8.70
2022-08-25T07:27:54.805Z,7.07
2022-08-25T07:30:24.095Z,7.25
2022-08-25T07:32:51.359Z,6.72
2022-08-25T07:35:26.165Z,6.93
2022-08-25T07:37:59.412Z,8.50
2022-08-25T07:40:30.118Z,8.00
2022-08-25T07:43:00.198Z,6.97
2022-08-25T07:45:31.110Z,7.20
2022-08-25T07:48:00.055Z,5.22
2022-08-25T07:50:28.142Z,7.63
2022-08-25T07:52:56.214Z,7.18
2022-08-25T07:55:26.010Z,8.25
2022-08-25T07:57:57.198Z,8.02
2022-08-25T08:00:27.721Z,6.45
2022-08-25T08:02:55.093Z,5.57
2022-08-25T08:05:23.914Z,5.15
2022-08-25T08:07:52.423Z,5.68
2022-08-25T08:13:08.496Z,5.20
2022-08-25T08:15:37.169Z,8.13
2022-08-25T08:18:04.309Z,4.47
2022-08-25T08:20:42.745Z,5.18
2022-08-25T08:23:11.173Z,5.03
2022-08-25T08:25:38.082Z,4.70
2022-08-25T08:28:07.017Z,4.65
2022-08-25T08:30:36.612Z,4.28
2022-08-25T08:33:09.990Z,4.97
2022-08-25T08:35:38.402Z,4.47
2022-08-25T08:38:13.150Z,4.88
2022-08-25T08:41:30.545Z,4.30
2022-08-25T08:44:13.567Z,4.07
2022-08-25T08:46:49.523Z,4.88
2022-08-25T08:49:46.400Z,4.30
2022-08-25T08:52:18.481Z,4.25
2022-08-25T08:54:56.252Z,6.10
2022-08-25T08:57:27.053Z,5.40
2022-08-25T09:00:01.851Z,5.03
2022-08-25T09:02:52.079Z,6.80
2022-08-25T09:05:23.051Z,4.68
2022-08-25T09:07:58.075Z,3.60
2022-08-25T09:10:32.475Z,5.72
2022-08-25T09:13:32.187Z,4.40
2022-08-25T09:16:42.300Z,4.25
2022-08-25T09:19:12.790Z,3.83
2022-08-25T09:22:35.413Z,4.85
2022-08-25T09:25:48.593Z,4.35
2022-08-25T09:28:26.106Z,4.03
2022-08-25T09:31:35.912Z,4.28
2022-08-25T09:34:05.979Z,5.53
2022-08-25T09:36:37.417Z,13.10
2022-08-25T09:39:06.313Z,4.25
2022-08-25T09:41:56.230Z,7.50
2022-08-25T09:44:31.462Z,6.07
2022-08-25T09:47:08.436Z,5.47
2022-08-25T09:49:39.058Z,3.83
2022-08-25T09:52:35.162Z,3.78
2022-08-25T09:55:05.070Z,5.07
2022-08-25T09:57:43.855Z,5.57
2022-08-25T10:00:13.820Z,3.78
2022-08-25T10:02:42.729Z,3.45
2022-08-25T10:05:23.430Z,6.00
2022-08-25T10:08:01.721Z,3.70
2022-08-25T10:10:33.403Z,3.60
2022-08-25T10:13:03.626Z,4.03
2022-08-25T10:15:34.574Z,3.92
2022-08-25T10:18:28.318Z,4.93
2022-08-25T10:21:07.681Z,4.90
2022-08-25T10:23:37.385Z,3.72
2022-08-25T10:26:11.271Z,3.97
2022-08-25T10:28:52.797Z,5.20
2022-08-25T10:31:28.452Z,4.72
2022-08-25T10:34:08.377Z,4.35
2022-08-25T10:36:57.018Z,4.63
2022-08-25T10:39:54.915Z,4.93
2022-08-25T10:42:36.811Z,5.10
2022-08-25T10:45:34.298Z,4.10
2022-08-25T10:48:13.014Z,5.22
2022-08-25T10:50:53.699Z,4.00
2022-08-25T10:53:26.182Z,5.10
2022-08-25T10:56:16.742Z,7.00
2022-08-25T10:59:10.238Z,6.38
2022-08-25T11:01:58.673Z,4.10
2022-08-25T11:05:03.234Z,3.58
2022-08-25T11:07:37.147Z,5.25
2022-08-25T11:10:11.455Z,3.58
2022-08-25T11:12:53.671Z,3.17
2022-08-25T11:15:26.627Z,4.85
2022-08-25T11:18:02.909Z,5.28
2022-08-25T11:20:49.751Z,4.47
2022-08-25T11:23:34.161Z,3.50
2022-08-25T11:26:11.074Z,2.85
2022-08-25T11:29:02.630Z,5.28
2022-08-25T11:31:30.121Z,3.88
2022-08-25T11:33:58.841Z,3.67
2022-08-25T11:36:33.180Z,5.10
2022-08-25T11:39:28.053Z,2.88
2022-08-25T11:42:02.235Z,4.18
2022-08-25T11:44:55.267Z,3.22
2022-08-25T11:47:28.273Z,3.83
2022-08-25T11:50:03.009Z,3.13
2022-08-25T11:52:47.169Z,2.83
2022-08-25T11:55:14.086Z,3.78
2022-08-25T11:57:43.412Z,5.85
2022-08-25T12:00:39.008Z,5.13
2022-08-25T12:03:32.827Z,5.43
2022-08-25T12:06:25.002Z,2.65
2022-08-25T12:08:54.430Z,5.45
2022-08-25T12:11:46.555Z,5.25
2022-08-25T12:14:20.153Z,3.45
2022-08-25T12:16:56.456Z,4.25
2022-08-25T12:19:35.396Z,2.95
2022-08-25T12:22:03.367Z,3.53
2022-08-25T12:24:47.666Z,2.97
2022-08-25T12:27:27.439Z,4.55
2022-08-25T12:30:22.205Z,3.22
2022-08-25T12:33:31.938Z,2.88
2022-08-25T12:36:02.138Z,2.42
2022-08-25T12:39:01.163Z,2.72
2022-08-25T12:41:33.726Z,2.90
2022-08-25T12:44:32.767Z,4.78
2022-08-25T12:47:07.851Z,3.70
2022-08-25T12:49:35.850Z,4.57
2022-08-25T12:52:27.853Z,7.15
2022-08-25T12:54:59.543Z,3.20
2022-08-25T12:57:45.900Z,5.85
2022-08-25T13:00:18.949Z,3.60
2022-08-25T13:03:16.809Z,4.53
2022-08-25T13:06:17.056Z,4.10
2022-08-25T13:08:49.649Z,3.28
2022-08-25T13:11:38.812Z,3.47
2022-08-25T13:14:34.746Z,3.50
2022-08-25T13:17:05.439Z,4.78
2022-08-25T13:19:34.646Z,6.63
2022-08-25T13:22:15.573Z,10.20
2022-08-25T13:24:47.650Z,4.85
2022-08-25T13:27:24.837Z,6.07
2022-08-25T13:29:56.545Z,11.40
2022-08-25T13:32:34.366Z,5.07
2022-08-25T13:35:32.462Z,4.80
2022-08-25T13:38:18.645Z,5.93
2022-08-25T13:40:45.702Z,6.82
2022-08-25T13:43:15.103Z,7.50
2022-08-25T13:45:47.217Z,9.63
2022-08-25T13:48:31.066Z,10.15
2022-08-25T13:51:09.082Z,10.18
2022-08-25T13:53:38.937Z,7.32
2022-08-25T13:56:07.275Z,5.72
2022-08-25T13:58:45.154Z,8.52
2022-08-25T14:01:22.766Z,7.90
2022-08-25T14:04:33.750Z,6.97
2022-08-25T14:07:14.115Z,7.15
2022-08-25T14:09:53.140Z,9.90
2022-08-25T14:12:46.350Z,5.97
2022-08-25T14:15:20.164Z,7.15
2022-08-25T14:17:59.501Z,9.38
2022-08-25T14:20:29.751Z,7.95
2022-08-25T14:23:04.209Z,8.10
2022-08-25T14:25:35.344Z,5.10
2022-08-25T14:28:07.166Z,9.88
2022-08-25T14:30:39.305Z,5.78
2022-08-25T14:33:06.812Z,5.38
2022-08-25T14:35:34.578Z,8.65
2022-08-25T14:38:09.323Z,6.72
2022-08-25T14:40:36.799Z,4.65
2022-08-25T14:43:03.980Z,9.00
2022-08-25T14:45:32.416Z,6.20
2022-08-25T14:48:10.214Z,10.30
2022-08-25T14:50:41.916Z,10.45
2022-08-25T14:53:10.599Z,7.55
2022-08-25T14:55:38.047Z,12.27
2022-08-25T14:58:06.857Z,13.77
2022-08-25T15:00:37.503Z,8.25
2022-08-25T15:03:04.776Z,9.23
2022-08-25T15:05:31.978Z,10.80
2022-08-25T15:08:17.643Z,10.98
2022-08-25T15:10:44.547Z,6.88
2022-08-25T15:13:11.355Z,7.65
2022-08-25T15:15:58.126Z,9.63
2022-08-25T15:18:26.014Z,6.03
2022-08-25T15:20:52.939Z,13.15
2022-08-25T15:23:20.940Z,7.22
2022-08-25T15:25:52.755Z,9.57
2022-08-25T15:28:22.286Z,9.73
2022-08-25T15:30:50.323Z,6.88
2022-08-25T15:33:17.776Z,12.30
2022-08-25T15:35:45.664Z,10.25
2022-08-25T15:38:13.017Z,8.60
2022-08-25T15:40:40.024Z,10.40
2022-08-25T15:43:07.327Z,13.18
2022-08-25T15:45:36.346Z,9.18
2022-08-25T15:48:06.623Z,11.93
2022-08-25T15:50:34.487Z,16.08
2022-08-25T15:53:01.563Z,12.95
2022-08-25T15:55:28.721Z,16.98
2022-08-25T15:57:55.573Z,12.18
2022-08-25T16:00:23.184Z,13.68
2022-08-25T16:02:50.650Z,13.45
2022-08-25T16:05:22.490Z,16.50
2022-08-25T16:07:52.642Z,13.25
2022-08-25T16:10:19.778Z,19.70
2022-08-25T16:12:47.125Z,20.17
2022-08-25T16:15:14.024Z,14.20
2022-08-25T16:17:43.671Z,21.13
2022-08-25T16:20:13.722Z,18.55
2022-08-25T16:22:41.487Z,17.85
2022-08-25T16:25:08.896Z,20.02
2022-08-25T16:27:38.546Z,17.65
2022-08-25T16:30:11.744Z,18.25
2022-08-25T16:32:40.959Z,15.77
2022-08-25T16:35:10.969Z,16.90
2022-08-25T16:37:38.320Z,14.70
2022-08-25T16:40:08.456Z,16.30
2022-08-25T16:42:35.882Z,19.90
2022-08-25T16:45:03.003Z,16.83
2022-08-25T16:47:37.143Z,13.60
2022-08-25T16:50:10.825Z,16.98
2022-08-25T16:52:56.534Z,21.73
2022-08-25T16:55:25.817Z,16.85
2022-08-25T16:57:54.594Z,18.35
2022-08-25T17:00:25.255Z,15.70
2022-08-25T17:02:59.327Z,16.20
2022-08-25T17:05:28.210Z,15.40
2022-08-25T17:08:15.143Z,15.82
2022-08-25T17:10:43.485Z,21.67
2022-08-25T17:13:12.896Z,17.65
2022-08-25T17:15:43.192Z,18.55
2022-08-25T17:18:11.206Z,16.25
2022-08-25T17:20:42.110Z,15.05
2022-08-25T17:23:12.706Z,19.35
2022-08-25T17:25:41.512Z,17.13
2022-08-25T17:28:11.939Z,19.33
2022-08-25T17:30:39.359Z,15.38
2022-08-25T17:33:06.291Z,20.98
2022-08-25T17:35:39.255Z,19.98
2022-08-25T17:38:06.277Z,24.35
2022-08-25T17:40:34.026Z,17.63
2022-08-25T17:43:02.377Z,18.42
2022-08-25T17:45:29.266Z,20.25
2022-08-25T17:47:57.915Z,15.73
2022-08-25T17:50:25.795Z,19.52
2022-08-25T17:52:53.731Z,15.07
2022-08-25T17:55:22.952Z,21.33
2022-08-25T17:57:52.839Z,16.85
2022-08-25T18:00:22.489Z,25.60
2022-08-25T18:02:50.123Z,16.92
2022-08-25T18:05:18.188Z,24.27
2022-08-25T18:07:45.326Z,18.55
2022-08-25T18:10:12.443Z,19.25
2022-08-25T18:12:39.583Z,20.80
2022-08-25T18:15:08.161Z,20.95
2022-08-25T18:17:36.139Z,22.33
2022-08-25T18:20:06.698Z,18.20
2022-08-25T18:22:35.323Z,19.75
2022-08-25T18:25:06.827Z,17.63
2022-08-25T18:27:34.853Z,18.48
2022-08-25T18:30:02.475Z,19.13
2022-08-25T18:32:30.099Z,19.10
2022-08-25T18:34:57.491Z,18.05
2022-08-25T18:37:43.122Z,17.50
2022-08-25T18:40:23.639Z,20.95
2022-08-25T18:43:02.667Z,26.08
2022-08-25T18:45:38.474Z,18.52
2022-08-25T18:48:06.002Z,15.68
2022-08-25T18:50:36.979Z,20.08
2022-08-25T18:53:06.136Z,16.63
2022-08-25T18:55:33.866Z,20.05
2022-08-25T18:58:00.825Z,19.13
2022-08-25T19:00:30.211Z,21.63
2022-08-25T19:03:00.634Z,22.08
2022-08-25T19:05:34.327Z,20.55
2022-08-25T19:08:03.951Z,16.38
2022-08-25T19:10:32.603Z,12.85
2022-08-25T19:13:08.030Z,18.13
2022-08-25T19:15:37.807Z,20.48
2022-08-25T19:18:09.756Z,21.55
2022-08-25T19:20:37.610Z,12.90
2022-08-25T19:23:07.691Z,16.60
2022-08-25T19:25:35.197Z,15.73
2022-08-25T19:28:11.849Z,16.35
2022-08-25T19:30:43.676Z,22.55
2022-08-25T19:33:42.129Z,28.55
2022-08-25T19:36:06.405Z,19.02
2022-08-25T19:38:36.496Z,16.90
2022-08-25T19:41:09.038Z,19.80
2022-08-25T19:43:55.242Z,17.17
2022-08-25T19:46:32.613Z,21.17
2022-08-25T19:49:11.663Z,15.48
2022-08-25T19:51:44.362Z,18.88
2022-08-25T19:54:16.135Z,16.30
2022-08-25T19:56:54.720Z,16.67
2022-08-25T19:59:34.229Z,15.95
2022-08-25T20:02:09.428Z,17.48
2022-08-25T20:04:37.972Z,20.23
2022-08-25T20:07:07.865Z,16.65
2022-08-25T20:09:40.779Z,19.98
2022-08-25T20:12:11.213Z,19.83
2022-08-25T20:14:38.678Z,15.57
2022-08-25T20:17:13.653Z,15.90
2022-08-25T20:19:54.350Z,20.52
2022-08-25T20:22:26.361Z,16.90
2022-08-25T20:24:57.830Z,20.05
2022-08-25T20:27:31.189Z,18.30
2022-08-25T20:29:58.408Z,15.30
2022-08-25T20:32:25.813Z,16.83
2022-08-25T20:34:56.951Z,15.98
2022-08-25T20:37:25.965Z,14.02
2022-08-25T20:39:53.095Z,18.25
2022-08-25T20:42:20.562Z,15.20
2022-08-25T20:44:47.634Z,20.27
2022-08-25T20:47:15.344Z,21.40
2022-08-25T20:49:45.875Z,18.10
2022-08-25T20:52:14.261Z,17.90
2022-08-25T20:54:46.975Z,18.55
2022-08-25T20:57:17.814Z,17.60
2022-08-25T20:59:44.566Z,13.63
2022-08-25T21:02:14.039Z,19.33
2022-08-25T21:04:50.284Z,20.45
2022-08-25T21:07:18.794Z,22.35
2022-08-25T21:09:46.284Z,18.33
2022-08-25T21:12:13.591Z,18.52
2022-08-25T21:14:42.163Z,18.60
2022-08-25T21:17:12.676Z,15.25
2022-08-25T21:19:41.691Z,21.52
2022-08-25T21:22:11.345Z,24.02
2022-08-25T21:24:39.098Z,18.23
2022-08-25T21:27:06.406Z,18.17
2022-08-25T21:29:33.665Z,17.67
2022-08-25T21:32:00.768Z,23.45
2022-08-25T21:34:29.218Z,18.48
2022-08-25T21:36:58.315Z,23.80
2022-08-25T21:39:28.280Z,18.92
2022-08-25T21:41:56.702Z,21.52
2022-08-25T21:44:23.902Z,14.48
2022-08-25T21:46:54.107Z,16.70
2022-08-25T21:49:23.322Z,17.55
2022-08-25T21:52:00.775Z,18.20
2022-08-25T21:54:29.078Z,19.25
2022-08-25T21:57:01.792Z,18.83
2022-08-25T21:59:31.988Z,19.05
2022-08-25T22:02:01.704Z,14.90
2022-08-25T22:04:30.342Z,19.35
2022-08-25T22:06:58.461Z,20.23
2022-08-25T22:09:26.690Z,20.70
2022-08-25T22:11:56.526Z,19.00
2022-08-25T22:14:26.192Z,17.27
2022-08-25T22:16:54.725Z,18.45
2022-08-25T22:19:22.775Z,18.20
2022-08-25T22:21:51.098Z,20.25
2022-08-25T22:24:19.187Z,20.60
2022-08-25T22:26:47.599Z,23.52
2022-08-25T22:29:25.475Z,20.67
2022-08-25T22:31:53.986Z,18.20
2022-08-25T22:34:30.208Z,20.35
2022-08-25T22:37:00.088Z,25.13
2022-08-25T22:39:28.405Z,25.13
2022-08-25T22:41:55.561Z,18.85
2022-08-25T22:44:23.240Z,18.48
2022-08-25T22:46:50.066Z,19.65
2022-08-25T22:49:16.898Z,22.77
2022-08-25T22:51:44.562Z,20.83
2022-08-25T22:54:15.131Z,18.73
2022-08-25T22:56:42.952Z,22.23
2022-08-25T22:59:13.089Z,18.50
2022-08-25T23:01:41.097Z,20.80
2022-08-25T23:04:08.594Z,23.40
2022-08-25T23:06:38.260Z,20.33
2022-08-25T23:09:06.522Z,23.02
2022-08-25T23:11:33.342Z,17.98
2022-08-25T23:14:00.587Z,17.17
2022-08-25T23:16:28.506Z,17.95
2022-08-25T23:18:55.677Z,18.10
2022-08-25T23:21:42.434Z,20.10
2022-08-25T23:24:11.112Z,21.38
2022-08-25T23:26:42.730Z,21.98
2022-08-25T23:29:18.764Z,17.23
2022-08-25T23:31:47.948Z,19.30
2022-08-25T23:34:16.675Z,13.52
2022-08-25T23:36:44.548Z,18.13
2022-08-25T23:39:11.571Z,19.20
2022-08-25T23:41:39.414Z,20.80
2022-08-25T23:44:06.571Z,19.10
2022-08-25T23:46:36.487Z,23.83
2022-08-25T23:49:05.672Z,20.20
2022-08-25T23:51:37.227Z,20.70
2022-08-25T23:54:09.553Z,21.38
2022-08-25T23:56:44.805Z,21.58
2022-08-25T23:59:24.447Z,18.85
